sensor_id;sensor_type;location;lat;lon;timestamp;pressure;altitude;pressure_sealevel;temperature;humidity
64933;BME280;51446;53.850;10.662;2023-05-15T00:01:18;101286.78;;;12.92;100.00
64933;BME280;51446;53.850;10.662;2023-05-15T00:03:43;101283.31;;;12.94;100.00
64933;BME280;51446;53.850;10.662;2023-05-15T00:06:08;101281.44;;;12.84;100.00
64933;BME280;51446;53.850;10.662;2023-05-15T00:08:34;101276.94;;;12.77;100.00
64933;BME280;51446;53.850;10.662;2023-05-15T00:10:59;101275.97;;;12.72;100.00
64933;BME280;51446;53.850;10.662;2023-05-15T00:13:24;101277.66;;;12.66;100.00
64933;BME280;51446;53.850;10.662;2023-05-15T00:15:49;101276.69;;;12.61;100.00
64933;BME280;51446;53.850;10.662;2023-05-15T00:18:15;101270.53;;;12.59;100.00
64933;BME280;51446;53.850;10.662;2023-05-15T00:20:40;101274.78;;;12.51;100.00
64933;BME280;51446;53.850;10.662;2023-05-15T00:23:05;101272.13;;;12.48;100.00
64933;BME280;51446;53.850;10.662;2023-05-15T00:25:31;101269.63;;;12.57;100.00
64933;BME280;51446;53.850;10.662;2023-05-15T00:27:56;101277.41;;;12.51;100.00
64933;BME280;51446;53.850;10.662;2023-05-15T00:30:21;101278.16;;;12.42;100.00
64933;BME280;51446;53.850;10.662;2023-05-15T00:32:46;101276.25;;;12.32;100.00
64933;BME280;51446;53.850;10.662;2023-05-15T00:35:12;101277.91;;;12.27;100.00
64933;BME280;51446;53.850;10.662;2023-05-15T00:37:37;101272.44;;;12.14;100.00
64933;BME280;51446;53.850;10.662;2023-05-15T00:40:03;101267.97;;;12.09;100.00
64933;BME280;51446;53.850;10.662;2023-05-15T00:42:29;101274.13;;;12.12;100.00
64933;BME280;51446;53.850;10.662;2023-05-15T00:44:55;101263.66;;;12.15;100.00
64933;BME280;51446;53.850;10.662;2023-05-15T00:47:21;101270.34;;;11.96;100.00
64933;BME280;51446;53.850;10.662;2023-05-15T00:49:48;101265.06;;;11.93;100.00
64933;BME280;51446;53.850;10.662;2023-05-15T00:52:14;101267.56;;;11.89;100.00
64933;BME280;51446;53.850;10.662;2023-05-15T00:54:39;101262.91;;;11.75;100.00
64933;BME280;51446;53.850;10.662;2023-05-15T00:57:05;101270.69;;;11.69;100.00
64933;BME280;51446;53.850;10.662;2023-05-15T00:59:32;101262.78;;;11.68;100.00
64933;BME280;51446;53.850;10.662;2023-05-15T01:01:58;101254.84;;;11.65;100.00
64933;BME280;51446;53.850;10.662;2023-05-15T01:04:24;101260.06;;;11.63;100.00
64933;BME280;51446;53.850;10.662;2023-05-15T01:06:49;101252.22;;;11.65;100.00
64933;BME280;51446;53.850;10.662;2023-05-15T01:09:18;101245.97;;;11.59;100.00
64933;BME280;51446;53.850;10.662;2023-05-15T01:11:45;101259.13;;;11.59;100.00
64933;BME280;51446;53.850;10.662;2023-05-15T01:14:11;101256.44;;;11.56;100.00
64933;BME280;51446;53.850;10.662;2023-05-15T01:16:37;101257.22;;;11.52;100.00
64933;BME280;51446;53.850;10.662;2023-05-15T01:19:03;101251.94;;;11.51;100.00
64933;BME280;51446;53.850;10.662;2023-05-15T01:24:03;101248.44;;;11.50;100.00
64933;BME280;51446;53.850;10.662;2023-05-15T01:26:50;101247.66;;;11.54;100.00
64933;BME280;51446;53.850;10.662;2023-05-15T01:29:23;101243.22;;;11.52;100.00
64933;BME280;51446;53.850;10.662;2023-05-15T01:31:56;101245.97;;;11.59;100.00
64933;BME280;51446;53.850;10.662;2023-05-15T01:34:28;101241.47;;;11.52;100.00
64933;BME280;51446;53.850;10.662;2023-05-15T01:36:58;101229.19;;;11.50;100.00
64933;BME280;51446;53.850;10.662;2023-05-15T01:39:27;101240.50;;;11.47;100.00
64933;BME280;51446;53.850;10.662;2023-05-15T01:41:59;101230.94;;;11.51;100.00
64933;BME280;51446;53.850;10.662;2023-05-15T01:44:27;101237.06;;;11.50;100.00
64933;BME280;51446;53.850;10.662;2023-05-15T01:46:57;101244.81;;;11.45;100.00
64933;BME280;51446;53.850;10.662;2023-05-15T01:49:25;101237.88;;;11.47;100.00
64933;BME280;51446;53.850;10.662;2023-05-15T01:51:56;101231.63;;;11.42;100.00
64933;BME280;51446;53.850;10.662;2023-05-15T01:54:23;101235.19;;;11.44;100.00
64933;BME280;51446;53.850;10.662;2023-05-15T01:56:49;101232.56;;;11.44;100.00
64933;BME280;51446;53.850;10.662;2023-05-15T01:59:17;101231.84;;;11.51;100.00
64933;BME280;51446;53.850;10.662;2023-05-15T02:01:43;101223.00;;;11.48;100.00
64933;BME280;51446;53.850;10.662;2023-05-15T02:04:10;101224.63;;;11.41;100.00
64933;BME280;51446;53.850;10.662;2023-05-15T02:06:36;101223.78;;;11.43;100.00
64933;BME280;51446;53.850;10.662;2023-05-15T02:09:02;101224.63;;;11.41;100.00
64933;BME280;51446;53.850;10.662;2023-05-15T02:11:28;101213.13;;;11.34;100.00
64933;BME280;51446;53.850;10.662;2023-05-15T02:13:55;101219.16;;;11.30;100.00
64933;BME280;51446;53.850;10.662;2023-05-15T02:16:21;101217.50;;;11.34;100.00
64933;BME280;51446;53.850;10.662;2023-05-15T02:18:47;101209.66;;;11.35;100.00
64933;BME280;51446;53.850;10.662;2023-05-15T02:21:12;101208.78;;;11.38;100.00
64933;BME280;51446;53.850;10.662;2023-05-15T02:23:37;101188.53;;;11.31;100.00
64933;BME280;51446;53.850;10.662;2023-05-15T02:28:40;101214.00;;;11.35;100.00
64933;BME280;51446;53.850;10.662;2023-05-15T02:31:13;101208.63;;;11.28;100.00
64933;BME280;51446;53.850;10.662;2023-05-15T02:33:54;101206.91;;;11.31;100.00
64933;BME280;51446;53.850;10.662;2023-05-15T02:36:24;101204.28;;;11.31;100.00
64933;BME280;51446;53.850;10.662;2023-05-15T02:38:54;101202.50;;;11.28;100.00
64933;BME280;51446;53.850;10.662;2023-05-15T02:41:20;101201.56;;;11.26;100.00
64933;BME280;51446;53.850;10.662;2023-05-15T02:43:49;101205.09;;;11.26;100.00
64933;BME280;51446;53.850;10.662;2023-05-15T02:46:14;101198.81;;;11.18;100.00
64933;BME280;51446;53.850;10.662;2023-05-15T02:48:40;101199.66;;;11.17;100.00
64933;BME280;51446;53.850;10.662;2023-05-15T02:51:07;101193.31;;;11.07;100.00
64933;BME280;51446;53.850;10.662;2023-05-15T02:53:33;101201.31;;;11.12;100.00
64933;BME280;51446;53.850;10.662;2023-05-15T02:56:03;101196.84;;;11.08;100.00
64933;BME280;51446;53.850;10.662;2023-05-15T02:58:28;101194.06;;;11.00;100.00
64933;BME280;51446;53.850;10.662;2023-05-15T03:00:53;101190.63;;;11.03;100.00
64933;BME280;51446;53.850;10.662;2023-05-15T03:03:18;101188.69;;;10.94;100.00
64933;BME280;51446;53.850;10.662;2023-05-15T03:05:43;101189.50;;;10.91;100.00
64933;BME280;51446;53.850;10.662;2023-05-15T03:08:09;101184.13;;;10.85;100.00
64933;BME280;51446;53.850;10.662;2023-05-15T03:10:34;101183.22;;;10.83;100.00
64933;BME280;51446;53.850;10.662;2023-05-15T03:12:59;101175.03;;;10.69;100.00
64933;BME280;51446;53.850;10.662;2023-05-15T03:15:25;101177.63;;;10.68;100.00
64933;BME280;51446;53.850;10.662;2023-05-15T03:17:50;101166.16;;;10.63;100.00
64933;BME280;51446;53.850;10.662;2023-05-15T03:20:15;101167.03;;;10.62;100.00
64933;BME280;51446;53.850;10.662;2023-05-15T03:22:41;101169.50;;;10.55;100.00
64933;BME280;51446;53.850;10.662;2023-05-15T03:25:09;101164.88;;;10.44;100.00
64933;BME280;51446;53.850;10.662;2023-05-15T03:27:35;101164.06;;;10.46;100.00
64933;BME280;51446;53.850;10.662;2023-05-15T03:30:01;101164.94;;;10.47;100.00
64933;BME280;51446;53.850;10.662;2023-05-15T03:32:26;101157.28;;;10.56;100.00
64933;BME280;51446;53.850;10.662;2023-05-15T03:34:52;101152.88;;;10.55;100.00
64933;BME280;51446;53.850;10.662;2023-05-15T03:37:17;101160.03;;;10.62;100.00
64933;BME280;51446;53.850;10.662;2023-05-15T03:39:42;101157.50;;;10.67;100.00
64933;BME280;51446;53.850;10.662;2023-05-15T03:42:07;101152.28;;;10.68;100.00
64933;BME280;51446;53.850;10.662;2023-05-15T03:44:33;101152.53;;;10.79;100.00
64933;BME280;51446;53.850;10.662;2023-05-15T03:46:59;101141.91;;;10.74;100.00
64933;BME280;51446;53.850;10.662;2023-05-15T03:49:24;101143.88;;;10.83;100.00
64933;BME280;51446;53.850;10.662;2023-05-15T03:51:49;101144.75;;;10.84;100.00
64933;BME280;51446;53.850;10.662;2023-05-15T03:54:15;101141.25;;;10.83;100.00
64933;BME280;51446;53.850;10.662;2023-05-15T03:56:40;101140.53;;;10.90;100.00
64933;BME280;51446;53.850;10.662;2023-05-15T03:59:05;101147.34;;;10.82;100.00
64933;BME280;51446;53.850;10.662;2023-05-15T04:01:31;101131.03;;;10.99;100.00
64933;BME280;51446;53.850;10.662;2023-05-15T04:03:56;101133.47;;;10.88;100.00
64933;BME280;51446;53.850;10.662;2023-05-15T04:06:21;101143.16;;;10.90;100.00
64933;BME280;51446;53.850;10.662;2023-05-15T04:08:48;101140.41;;;10.86;100.00
64933;BME280;51446;53.850;10.662;2023-05-15T04:11:13;101137.97;;;10.95;100.00
64933;BME280;51446;53.850;10.662;2023-05-15T04:13:38;101134.59;;;11.01;100.00
64933;BME280;51446;53.850;10.662;2023-05-15T04:16:04;101135.59;;;11.07;100.00
64933;BME280;51446;53.850;10.662;2023-05-15T04:18:29;101135.63;;;11.10;100.00
64933;BME280;51446;53.850;10.662;2023-05-15T04:20:54;101132.19;;;11.13;100.00
64933;BME280;51446;53.850;10.662;2023-05-15T04:23:20;101126.00;;;11.08;100.00
64933;BME280;51446;53.850;10.662;2023-05-15T04:25:45;101129.75;;;11.22;100.00
64933;BME280;51446;53.850;10.662;2023-05-15T04:28:14;101117.63;;;11.31;100.00
64933;BME280;51446;53.850;10.662;2023-05-15T04:30:39;101122.22;;;11.41;100.00
64933;BME280;51446;53.850;10.662;2023-05-15T04:33:05;101121.41;;;11.45;100.00
64933;BME280;51446;53.850;10.662;2023-05-15T04:35:30;101117.22;;;11.56;100.00
64933;BME280;51446;53.850;10.662;2023-05-15T04:37:56;101118.13;;;11.57;100.00
64933;BME280;51446;53.850;10.662;2023-05-15T04:40:21;101123.00;;;11.35;100.00
64933;BME280;51446;53.850;10.662;2023-05-15T04:42:46;101122.88;;;11.31;100.00
64933;BME280;51446;53.850;10.662;2023-05-15T04:45:12;101121.09;;;11.26;100.00
64933;BME280;51446;53.850;10.662;2023-05-15T04:47:38;101123.91;;;11.37;100.00
64933;BME280;51446;53.850;10.662;2023-05-15T04:50:04;101116.31;;;11.54;100.00
64933;BME280;51446;53.850;10.662;2023-05-15T04:52:29;101115.59;;;11.63;100.00
64933;BME280;51446;53.850;10.662;2023-05-15T04:54:54;101116.31;;;11.54;100.00
64933;BME280;51446;53.850;10.662;2023-05-15T04:57:20;101117.28;;;11.61;100.00
64933;BME280;51446;53.850;10.662;2023-05-15T04:59:46;101111.47;;;11.77;100.00
64933;BME280;51446;53.850;10.662;2023-05-15T05:02:11;101112.47;;;11.86;100.00
64933;BME280;51446;53.850;10.662;2023-05-15T05:04:36;101116.59;;;12.25;100.00
64933;BME280;51446;53.850;10.662;2023-05-15T05:07:01;101111.97;;;12.10;100.00
64933;BME280;51446;53.850;10.662;2023-05-15T05:09:29;101112.16;;;12.22;100.00
64933;BME280;51446;53.850;10.662;2023-05-15T05:11:55;101103.19;;;12.08;100.00
64933;BME280;51446;53.850;10.662;2023-05-15T05:14:20;101100.66;;;12.14;100.00
64933;BME280;51446;53.850;10.662;2023-05-15T05:16:45;101100.09;;;12.37;100.00
64933;BME280;51446;53.850;10.662;2023-05-15T05:19:10;101102.84;;;12.46;100.00
64933;BME280;51446;53.850;10.662;2023-05-15T05:21:36;101103.09;;;12.66;100.00
64933;BME280;51446;53.850;10.662;2023-05-15T05:24:01;101101.34;;;12.65;100.00
64933;BME280;51446;53.850;10.662;2023-05-15T05:26:26;101103.50;;;12.98;100.00
64933;BME280;51446;53.850;10.662;2023-05-15T05:28:52;101100.28;;;13.27;100.00
64933;BME280;51446;53.850;10.662;2023-05-15T05:31:17;101093.50;;;13.49;100.00
64933;BME280;51446;53.850;10.662;2023-05-15T05:33:43;101098.59;;;13.32;100.00
64933;BME280;51446;53.850;10.662;2023-05-15T05:36:08;101097.25;;;13.76;100.00
64933;BME280;51446;53.850;10.662;2023-05-15T05:38:35;101097.09;;;13.58;100.00
64933;BME280;51446;53.850;10.662;2023-05-15T05:41:00;101099.78;;;13.67;100.00
64933;BME280;51446;53.850;10.662;2023-05-15T05:43:26;101091.19;;;13.90;100.00
64933;BME280;51446;53.850;10.662;2023-05-15T05:45:51;101088.88;;;14.42;100.00
64933;BME280;51446;53.850;10.662;2023-05-15T05:48:17;101088.16;;;14.68;100.00
64933;BME280;51446;53.850;10.662;2023-05-15T05:50:42;101087.38;;;15.09;100.00
64933;BME280;51446;53.850;10.662;2023-05-15T05:53:07;101086.44;;;14.91;100.00
64933;BME280;51446;53.850;10.662;2023-05-15T05:55:33;101087.38;;;15.09;100.00
64933;BME280;51446;53.850;10.662;2023-05-15T05:57:58;101081.28;;;15.47;100.00
64933;BME280;51446;53.850;10.662;2023-05-15T06:00:23;101084.72;;;16.34;100.00
64933;BME280;51446;53.850;10.662;2023-05-15T06:02:53;101080.38;;;16.10;100.00
64933;BME280;51446;53.850;10.662;2023-05-15T06:05:19;101077.72;;;16.21;100.00
64933;BME280;51446;53.850;10.662;2023-05-15T06:07:44;101084.56;;;16.73;100.00
64933;BME280;51446;53.850;10.662;2023-05-15T06:10:09;101079.22;;;16.82;100.00
64933;BME280;51446;53.850;10.662;2023-05-15T06:12:36;101077.50;;;16.72;100.00
64933;BME280;51446;53.850;10.662;2023-05-15T06:15:02;101081.34;;;17.64;97.03
64933;BME280;51446;53.850;10.662;2023-05-15T06:17:27;101078.66;;;18.57;88.44
64933;BME280;51446;53.850;10.662;2023-05-15T06:19:53;101074.81;;;18.81;86.73
64933;BME280;51446;53.850;10.662;2023-05-15T06:22:18;101073.84;;;18.84;90.68
64933;BME280;51446;53.850;10.662;2023-05-15T06:24:43;101074.72;;;19.48;77.31
64933;BME280;51446;53.850;10.662;2023-05-15T06:27:08;101077.78;;;20.26;76.75
64933;BME280;51446;53.850;10.662;2023-05-15T06:29:34;101070.34;;;19.97;72.57
64933;BME280;51446;53.850;10.662;2023-05-15T06:31:59;101075.34;;;18.36;80.45
64933;BME280;51446;53.850;10.662;2023-05-15T06:34:25;101066.63;;;19.54;75.59
64933;BME280;51446;53.850;10.662;2023-05-15T06:36:50;101058.47;;;19.65;75.20
64933;BME280;51446;53.850;10.662;2023-05-15T06:39:16;101068.09;;;18.49;78.67
64933;BME280;51446;53.850;10.662;2023-05-15T06:41:41;101068.03;;;18.57;80.30
64933;BME280;51446;53.850;10.662;2023-05-15T06:44:07;101058.69;;;17.23;83.38
64933;BME280;51446;53.850;10.662;2023-05-15T06:46:32;101065.28;;;17.82;84.46
64933;BME280;51446;53.850;10.662;2023-05-15T06:48:57;101062.03;;;17.48;89.01
64933;BME280;51446;53.850;10.662;2023-05-15T06:51:23;101066.09;;;17.88;89.17
64933;BME280;51446;53.850;10.662;2023-05-15T06:53:48;101064.06;;;18.16;83.24
64933;BME280;51446;53.850;10.662;2023-05-15T06:56:13;101056.97;;;18.19;88.34
64933;BME280;51446;53.850;10.662;2023-05-15T06:58:38;101050.31;;;18.56;84.31
64933;BME280;51446;53.850;10.662;2023-05-15T07:01:04;101059.03;;;17.91;84.20
64933;BME280;51446;53.850;10.662;2023-05-15T07:03:31;101062.22;;;18.24;84.84
64933;BME280;51446;53.850;10.662;2023-05-15T07:05:56;101051.19;;;18.57;81.92
64933;BME280;51446;53.850;10.662;2023-05-15T07:08:22;101050.28;;;18.59;81.74
64933;BME280;51446;53.850;10.662;2023-05-15T07:10:47;101055.72;;;17.63;82.96
64933;BME280;51446;53.850;10.662;2023-05-15T07:13:12;101051.81;;;18.04;85.40
64933;BME280;51446;53.850;10.662;2023-05-15T07:15:38;101053.59;;;18.05;80.34
64933;BME280;51446;53.850;10.662;2023-05-15T07:18:03;101045.72;;;17.94;79.82
64933;BME280;51446;53.850;10.662;2023-05-15T07:20:29;101043.94;;;17.95;80.84
64933;BME280;51446;53.850;10.662;2023-05-15T07:22:54;101036.13;;;18.60;75.49
64933;BME280;51446;53.850;10.662;2023-05-15T07:25:19;101034.06;;;18.12;79.06
64933;BME280;51446;53.850;10.662;2023-05-15T07:27:44;101036.66;;;19.43;73.14
64933;BME280;51446;53.850;10.662;2023-05-15T07:30:10;101033.41;;;21.08;69.94
64933;BME280;51446;53.850;10.662;2023-05-15T07:32:36;101036.59;;;20.44;66.08
64933;BME280;51446;53.850;10.662;2023-05-15T07:35:01;101033.00;;;22.60;58.96
64933;BME280;51446;53.850;10.662;2023-05-15T07:37:28;101028.44;;;23.47;52.67
64933;BME280;51446;53.850;10.662;2023-05-15T07:39:54;101022.56;;;23.08;50.26
64933;BME280;51446;53.850;10.662;2023-05-15T07:42:20;101017.38;;;23.83;47.53
64933;BME280;51446;53.850;10.662;2023-05-15T07:44:45;101009.16;;;23.37;48.44
64933;BME280;51446;53.850;10.662;2023-05-15T07:47:10;101010.97;;;23.09;50.18
64933;BME280;51446;53.850;10.662;2023-05-15T07:49:36;101005.44;;;23.94;47.21
64933;BME280;51446;53.850;10.662;2023-05-15T07:52:01;101003.44;;;23.73;47.44
64933;BME280;51446;53.850;10.662;2023-05-15T07:54:26;101005.41;;;23.16;47.40
64933;BME280;51446;53.850;10.662;2023-05-15T07:56:51;101010.22;;;21.48;51.61
64933;BME280;51446;53.850;10.662;2023-05-15T07:59:18;101012.81;;;20.77;56.18
64933;BME280;51446;53.850;10.662;2023-05-15T08:01:43;101004.09;;;22.72;50.46
64933;BME280;51446;53.850;10.662;2023-05-15T08:04:10;101006.66;;;22.46;50.02
64933;BME280;51446;53.850;10.662;2023-05-15T08:06:36;101007.22;;;21.62;52.13
64933;BME280;51446;53.850;10.662;2023-05-15T08:09:02;101008.34;;;21.86;50.22
64933;BME280;51446;53.850;10.662;2023-05-15T08:11:28;101003.88;;;21.54;52.75
64933;BME280;51446;53.850;10.662;2023-05-15T08:13:53;101003.06;;;21.85;52.92
64933;BME280;51446;53.850;10.662;2023-05-15T08:16:19;101003.16;;;21.45;53.65
64933;BME280;51446;53.850;10.662;2023-05-15T08:18:44;101003.53;;;22.62;51.70
64933;BME280;51446;53.850;10.662;2023-05-15T08:21:09;100993.75;;;23.44;50.21
64933;BME280;51446;53.850;10.662;2023-05-15T08:23:35;100992.97;;;23.67;48.83
64933;BME280;51446;53.850;10.662;2023-05-15T08:26:00;100994.34;;;24.28;47.02
64933;BME280;51446;53.850;10.662;2023-05-15T08:28:25;100990.78;;;24.75;44.23
64933;BME280;51446;53.850;10.662;2023-05-15T08:30:51;100985.34;;;26.05;42.03
64933;BME280;51446;53.850;10.662;2023-05-15T08:33:16;100986.19;;;25.43;42.19
64933;BME280;51446;53.850;10.662;2023-05-15T08:35:41;100979.22;;;24.73;44.01
64933;BME280;51446;53.850;10.662;2023-05-15T08:38:07;100972.06;;;22.98;48.67
64933;BME280;51446;53.850;10.662;2023-05-15T08:40:32;100967.09;;;22.88;48.09
64933;BME280;51446;53.850;10.662;2023-05-15T08:43:02;100974.72;;;21.44;53.31
64933;BME280;51446;53.850;10.662;2023-05-15T08:45:30;100965.75;;;23.01;48.78
64933;BME280;51446;53.850;10.662;2023-05-15T08:47:57;100971.31;;;23.48;46.32
64933;BME280;51446;53.850;10.662;2023-05-15T08:50:23;100968.63;;;23.73;45.57
64933;BME280;51446;53.850;10.662;2023-05-15T08:52:49;100973.47;;;24.13;43.28
64933;BME280;51446;53.850;10.662;2023-05-15T08:55:16;100971.44;;;23.70;44.16
64933;BME280;51446;53.850;10.662;2023-05-15T08:57:42;100962.06;;;24.31;41.47
64933;BME280;51446;53.850;10.662;2023-05-15T09:00:08;100969.56;;;24.21;41.87
64933;BME280;51446;53.850;10.662;2023-05-15T09:02:36;100958.16;;;25.08;44.37
64933;BME280;51446;53.850;10.662;2023-05-15T09:05:02;100964.66;;;25.66;40.64
64933;BME280;51446;53.850;10.662;2023-05-15T09:07:31;100960.13;;;26.45;39.66
64933;BME280;51446;53.850;10.662;2023-05-15T09:09:58;100957.72;;;26.77;38.56
64933;BME280;51446;53.850;10.662;2023-05-15T09:12:25;100951.31;;;26.42;39.31
64933;BME280;51446;53.850;10.662;2023-05-15T09:14:50;100951.31;;;25.21;40.84
64933;BME280;51446;53.850;10.662;2023-05-15T09:17:15;100949.94;;;25.33;41.41
64933;BME280;51446;53.850;10.662;2023-05-15T09:19:42;100950.06;;;27.41;40.76
64933;BME280;51446;53.850;10.662;2023-05-15T09:22:19;100946.16;;;27.29;36.26
64933;BME280;51446;53.850;10.662;2023-05-15T09:24:49;100955.00;;;25.61;40.11
64933;BME280;51446;53.850;10.662;2023-05-15T09:27:17;100944.69;;;25.30;42.38
64933;BME280;51446;53.850;10.662;2023-05-15T09:29:42;100946.13;;;25.59;40.79
64933;BME280;51446;53.850;10.662;2023-05-15T09:32:09;100933.41;;;26.42;38.46
64933;BME280;51446;53.850;10.662;2023-05-15T09:34:37;100929.81;;;26.61;36.18
64933;BME280;51446;53.850;10.662;2023-05-15T09:37:04;100946.03;;;25.61;37.90
64933;BME280;51446;53.850;10.662;2023-05-15T09:39:31;100941.13;;;24.41;39.54
64933;BME280;51446;53.850;10.662;2023-05-15T09:42:06;100932.44;;;25.66;37.39
64933;BME280;51446;53.850;10.662;2023-05-15T09:44:32;100931.34;;;26.47;37.62
64933;BME280;51446;53.850;10.662;2023-05-15T09:46:58;100926.91;;;26.08;36.83
64933;BME280;51446;53.850;10.662;2023-05-15T09:49:23;100930.69;;;26.04;36.81
64933;BME280;51446;53.850;10.662;2023-05-15T09:51:49;100923.00;;;25.14;40.62
64933;BME280;51446;53.850;10.662;2023-05-15T09:54:17;100927.84;;;24.84;41.25
64933;BME280;51446;53.850;10.662;2023-05-15T09:56:44;100921.44;;;27.21;36.83
64933;BME280;51446;53.850;10.662;2023-05-15T09:59:14;100924.78;;;26.53;39.49
64933;BME280;51446;53.850;10.662;2023-05-15T10:01:42;100919.16;;;27.66;36.77
64933;BME280;51446;53.850;10.662;2023-05-15T10:04:09;100920.31;;;26.16;38.95
64933;BME280;51446;53.850;10.662;2023-05-15T10:06:35;100921.25;;;26.53;33.03
64933;BME280;51446;53.850;10.662;2023-05-15T10:09:01;100925.13;;;25.26;34.85
64933;BME280;51446;53.850;10.662;2023-05-15T10:11:29;100924.50;;;25.62;34.75
64933;BME280;51446;53.850;10.662;2023-05-15T10:13:55;100910.78;;;26.27;35.32
64933;BME280;51446;53.850;10.662;2023-05-15T10:16:21;100910.78;;;25.07;38.79
64933;BME280;51446;53.850;10.662;2023-05-15T10:18:49;100908.16;;;25.26;37.20
64933;BME280;51446;53.850;10.662;2023-05-15T10:21:15;100908.84;;;24.22;37.30
64933;BME280;51446;53.850;10.662;2023-05-15T10:23:42;100905.78;;;25.40;37.91
64933;BME280;51446;53.850;10.662;2023-05-15T10:26:14;100902.88;;;26.05;36.74
64933;BME280;51446;53.850;10.662;2023-05-15T10:28:45;100903.22;;;25.97;38.60
64933;BME280;51446;53.850;10.662;2023-05-15T10:31:10;100902.94;;;25.02;38.22
64933;BME280;51446;53.850;10.662;2023-05-15T10:33:37;100905.22;;;23.99;41.19
64933;BME280;51446;53.850;10.662;2023-05-15T10:36:03;100897.41;;;24.17;39.24
64933;BME280;51446;53.850;10.662;2023-05-15T10:38:29;100899.25;;;24.38;38.85
64933;BME280;51446;53.850;10.662;2023-05-15T10:40:56;100903.09;;;24.98;38.03
64933;BME280;51446;53.850;10.662;2023-05-15T10:43:22;100893.13;;;26.41;39.35
64933;BME280;51446;53.850;10.662;2023-05-15T10:45:48;100896.47;;;25.68;38.37
64933;BME280;51446;53.850;10.662;2023-05-15T10:48:16;100890.22;;;26.99;34.99
64933;BME280;51446;53.850;10.662;2023-05-15T10:50:42;100896.53;;;25.48;37.64
64933;BME280;51446;53.850;10.662;2023-05-15T10:53:08;100886.75;;;26.24;36.93
64933;BME280;51446;53.850;10.662;2023-05-15T10:55:35;100885.59;;;25.71;35.66
64933;BME280;51446;53.850;10.662;2023-05-15T10:58:00;100882.63;;;26.36;34.56
64933;BME280;51446;53.850;10.662;2023-05-15T11:00:27;100880.81;;;26.18;35.15
64933;BME280;51446;53.850;10.662;2023-05-15T11:02:53;100880.59;;;25.63;35.27
64933;BME280;51446;53.850;10.662;2023-05-15T11:05:21;100876.50;;;26.33;35.36
64933;BME280;51446;53.850;10.662;2023-05-15T11:08:22;100874.31;;;27.12;33.64
64933;BME280;51446;53.850;10.662;2023-05-15T11:10:49;100884.31;;;25.40;35.66
64933;BME280;51446;53.850;10.662;2023-05-15T11:13:15;100869.34;;;27.22;32.81
64933;BME280;51446;53.850;10.662;2023-05-15T11:15:42;100872.28;;;25.28;33.81
64933;BME280;51446;53.850;10.662;2023-05-15T11:18:07;100876.41;;;25.96;32.23
64933;BME280;51446;53.850;10.662;2023-05-15T11:20:40;100861.88;;;25.81;33.45
64933;BME280;51446;53.850;10.662;2023-05-15T11:23:05;100860.78;;;26.42;33.55
64933;BME280;51446;53.850;10.662;2023-05-15T11:25:31;100856.34;;;27.30;32.63
64933;BME280;51446;53.850;10.662;2023-05-15T11:27:58;100864.03;;;26.49;33.42
64933;BME280;51446;53.850;10.662;2023-05-15T11:30:37;100858.72;;;26.11;34.32
64933;BME280;51446;53.850;10.662;2023-05-15T11:33:06;100850.72;;;25.90;34.62
64933;BME280;51446;53.850;10.662;2023-05-15T11:35:45;100857.03;;;26.08;33.84
64933;BME280;51446;53.850;10.662;2023-05-15T11:38:18;100839.63;;;26.35;32.22
64933;BME280;51446;53.850;10.662;2023-05-15T11:40:53;100849.66;;;25.55;37.21
64933;BME280;51446;53.850;10.662;2023-05-15T11:43:32;100841.91;;;25.87;39.13
64933;BME280;51446;53.850;10.662;2023-05-15T11:48:31;100841.59;;;26.87;40.89
64933;BME280;51446;53.850;10.662;2023-05-15T11:50:56;100848.31;;;25.03;40.62
64933;BME280;51446;53.850;10.662;2023-05-15T11:53:22;100841.34;;;25.20;41.21
64933;BME280;51446;53.850;10.662;2023-05-15T11:55:50;100842.88;;;25.46;40.33
64933;BME280;51446;53.850;10.662;2023-05-15T11:58:17;100842.72;;;25.89;40.37
64933;BME280;51446;53.850;10.662;2023-05-15T12:00:45;100844.25;;;25.36;41.32
64933;BME280;51446;53.850;10.662;2023-05-15T12:03:25;100848.84;;;25.11;40.24
64933;BME280;51446;53.850;10.662;2023-05-15T12:05:52;100845.47;;;23.73;40.05
64933;BME280;51446;53.850;10.662;2023-05-15T12:08:18;100838.47;;;24.39;41.91
64933;BME280;51446;53.850;10.662;2023-05-15T12:10:45;100839.81;;;24.27;39.40
64933;BME280;51446;53.850;10.662;2023-05-15T12:13:11;100838.78;;;24.09;38.68
64933;BME280;51446;53.850;10.662;2023-05-15T12:15:38;100838.16;;;24.24;37.95
64933;BME280;51446;53.850;10.662;2023-05-15T12:18:04;100842.72;;;24.67;40.40
64933;BME280;51446;53.850;10.662;2023-05-15T12:20:32;100833.19;;;24.59;40.96
64933;BME280;51446;53.850;10.662;2023-05-15T12:22:58;100842.50;;;24.27;41.78
64933;BME280;51446;53.850;10.662;2023-05-15T12:25:23;100847.94;;;24.25;37.50
64933;BME280;51446;53.850;10.662;2023-05-15T12:27:49;100830.34;;;23.96;42.00
64933;BME280;51446;53.850;10.662;2023-05-15T12:30:14;100841.31;;;23.90;43.24
64933;BME280;51446;53.850;10.662;2023-05-15T12:32:40;100843.34;;;23.34;41.26
64933;BME280;51446;53.850;10.662;2023-05-15T12:35:06;100838.75;;;23.13;42.44
64933;BME280;51446;53.850;10.662;2023-05-15T12:37:31;100843.75;;;23.47;45.83
64933;BME280;51446;53.850;10.662;2023-05-15T12:40:00;100843.00;;;23.44;43.98